Time,TemperatureF,DewpointF,PressureIn,WindDirection,WindDirectionDegrees,WindSpeedMPH,WindSpeedGustMPH,Humidity,HourlyPrecipIn,Conditions,Clouds,dailyrainin,SoftwareType,DateUTC
2013-03-14 00:02:00,19.0,8.7,30.07,West,270,0.0,0.0,64,0.00,,,0.00,WUHU216HW,2013-03-14 05:02:00,
2013-03-14 00:07:00,18.6,8.7,30.07,SW,225,0.0,0.0,65,0.00,,,0.00,WUHU216HW,2013-03-14 05:07:00,
2013-03-14 00:12:00,18.3,8.4,30.07,West,270,0.0,0.0,65,0.00,,,0.00,WUHU216HW,2013-03-14 05:12:00,
2013-03-14 00:18:00,18.3,8.4,30.07,West,270,0.0,0.0,65,0.00,,,0.00,WUHU216HW,2013-03-14 05:18:00,
2013-03-14 00:23:00,17.9,8.1,30.07,West,270,0.0,0.0,65,0.00,,,0.00,WUHU216HW,2013-03-14 05:23:00,
2013-03-14 00:28:00,17.4,7.6,30.07,West,270,0.0,0.0,65,0.00,,,0.00,WUHU216HW,2013-03-14 05:28:00,
2013-03-14 00:33:00,17.2,7.7,30.07,West,270,0.0,0.0,66,0.00,,,0.00,WUHU216HW,2013-03-14 05:33:00,
2013-03-14 00:38:00,16.7,7.2,30.07,West,270,0.0,0.0,66,0.00,,,0.00,WUHU216HW,2013-03-14 05:38:00,
2013-03-14 00:43:00,16.3,7.2,30.07,West,270,0.0,0.0,67,0.00,,,0.00,WUHU216HW,2013-03-14 05:43:00,
2013-03-14 00:48:00,16.1,7.0,30.07,West,270,0.0,0.0,67,0.00,,,0.00,WUHU216HW,2013-03-14 05:48:00,
2013-03-14 00:53:00,15.8,6.6,30.07,WSW,248,0.0,0.0,67,0.00,,,0.00,WUHU216HW,2013-03-14 05:53:00,
2013-03-14 00:58:00,15.6,6.8,30.07,WSW,248,0.0,0.0,68,0.00,,,0.00,WUHU216HW,2013-03-14 05:58:00,
2013-03-14 01:03:00,15.6,6.8,30.07,WSW,248,0.0,0.0,68,0.00,,,0.00,WUHU216HW,2013-03-14 06:03:00,
2013-03-14 01:08:00,15.4,6.6,30.07,WSW,248,0.0,0.0,68,0.00,,,0.00,WUHU216HW,2013-03-14 06:08:00,
2013-03-14 01:14:00,15.2,6.8,30.07,WSW,248,0.0,0.0,69,0.00,,,0.00,WUHU216HW,2013-03-14 06:14:00,
2013-03-14 01:19:00,15.0,6.7,30.07,WSW,248,0.0,0.0,69,0.00,,,0.00,WUHU216HW,2013-03-14 06:19:00,
2013-03-14 01:24:00,15.0,6.7,30.07,WSW,248,0.0,0.0,69,0.00,,,0.00,WUHU216HW,2013-03-14 06:24:00,
2013-03-14 01:29:00,14.9,6.8,30.06,WSW,248,0.0,0.0,70,0.00,,,0.00,WUHU216HW,2013-03-14 06:29:00,
2013-03-14 01:34:00,14.7,6.7,30.06,WSW,248,0.0,0.0,70,0.00,,,0.00,WUHU216HW,2013-03-14 06:34:00,
2013-03-14 01:39:00,14.7,6.7,30.06,WSW,248,0.0,0.0,70,0.00,,,0.00,WUHU216HW,2013-03-14 06:39:00,
2013-03-14 01:44:00,14.7,6.7,30.06,WSW,248,0.0,0.0,70,0.00,,,0.00,WUHU216HW,2013-03-14 06:44:00,
2013-03-14 01:49:00,14.7,6.7,30.06,WSW,248,0.0,0.0,70,0.00,,,0.00,WUHU216HW,2013-03-14 06:49:00,
2013-03-14 01:54:00,14.7,7.0,30.06,WSW,248,0.0,0.0,71,0.00,,,0.00,WUHU216HW,2013-03-14 06:54:00,
2013-03-14 01:59:00,14.5,6.8,30.06,WSW,248,0.0,0.0,71,0.00,,,0.00,WUHU216HW,2013-03-14 06:59:00,
2013-03-14 02:04:00,14.3,6.6,30.07,WSW,248,0.0,0.0,71,0.00,,,0.00,WUHU216HW,2013-03-14 07:04:00,
2013-03-14 02:09:00,14.3,6.9,30.07,WSW,248,0.0,0.0,72,0.00,,,0.00,WUHU216HW,2013-03-14 07:09:00,
2013-03-14 02:15:00,14.1,6.8,30.06,WSW,248,0.0,0.0,72,0.00,,,0.00,WUHU216HW,2013-03-14 07:15:00,
2013-03-14 02:20:00,14.1,6.8,30.06,WSW,248,0.0,0.0,72,0.00,,,0.00,WUHU216HW,2013-03-14 07:20:00,
2013-03-14 02:25:00,14.1,7.1,30.06,WSW,248,0.0,0.0,73,0.00,,,0.00,WUHU216HW,2013-03-14 07:25:00,
2013-03-14 02:30:00,14.1,7.1,30.06,WSW,248,0.0,0.0,73,0.00,,,0.00,WUHU216HW,2013-03-14 07:30:00,
2013-03-14 02:35:00,14.1,7.1,30.06,WSW,248,0.0,0.0,73,0.00,,,0.00,WUHU216HW,2013-03-14 07:35:00,
2013-03-14 02:40:00,13.8,6.7,30.06,WSW,248,0.0,0.0,73,0.00,,,0.00,WUHU216HW,2013-03-14 07:40:00,
2013-03-14 02:45:00,13.8,6.7,30.06,WSW,248,0.0,0.0,73,0.00,,,0.00,WUHU216HW,2013-03-14 07:45:00,
2013-03-14 02:50:00,13.8,6.7,30.06,WSW,248,0.0,0.0,73,0.00,,,0.00,WUHU216HW,2013-03-14 07:50:00,
2013-03-14 02:55:00,14.1,7.1,30.06,WSW,248,0.0,0.0,73,0.00,,,0.00,WUHU216HW,2013-03-14 07:55:00,
2013-03-14 03:00:00,14.1,7.3,30.06,WSW,248,0.0,0.0,74,0.00,,,0.00,WUHU216HW,2013-03-14 08:00:00,
2013-03-14 03:05:00,14.3,7.5,30.06,WSW,248,0.0,0.0,74,0.00,,,0.00,WUHU216HW,2013-03-14 08:05:00,
2013-03-14 03:10:00,14.3,7.5,30.06,West,270,0.0,0.0,74,0.00,,,0.00,WUHU216HW,2013-03-14 08:10:00,
2013-03-14 03:16:00,14.1,7.3,30.05,West,270,0.0,0.0,74,0.00,,,0.00,WUHU216HW,2013-03-14 08:16:00,
2013-03-14 03:21:00,14.1,7.3,30.05,West,270,0.0,0.0,74,0.00,,,0.00,WUHU216HW,2013-03-14 08:21:00,
2013-03-14 03:26:00,14.1,7.3,30.04,West,270,0.0,0.0,74,0.00,,,0.00,WUHU216HW,2013-03-14 08:26:00,
2013-03-14 03:31:00,13.6,6.8,30.05,West,270,0.0,0.0,74,0.00,,,0.00,WUHU216HW,2013-03-14 08:31:00,
2013-03-14 03:36:00,13.2,6.5,30.04,West,270,0.0,0.0,74,0.00,,,0.00,WUHU216HW,2013-03-14 08:36:00,
2013-03-14 03:41:00,13.2,6.5,30.04,West,270,0.0,0.0,74,0.00,,,0.00,WUHU216HW,2013-03-14 08:41:00,
2013-03-14 03:46:00,13.1,6.6,30.04,West,270,0.0,0.0,75,0.00,,,0.00,WUHU216HW,2013-03-14 08:46:00,
2013-03-14 03:52:00,12.9,6.4,30.04,West,270,0.0,0.0,75,0.00,,,0.00,WUHU216HW,2013-03-14 08:52:00,
2013-03-14 03:57:00,12.9,6.4,30.04,West,270,0.0,0.0,75,0.00,,,0.00,WUHU216HW,2013-03-14 08:57:00,
2013-03-14 04:02:00,12.7,6.2,30.04,West,270,0.0,0.0,75,0.00,,,0.00,WUHU216HW,2013-03-14 09:02:00,
2013-03-14 04:07:00,12.7,6.2,30.04,West,270,0.0,0.0,75,0.00,,,0.00,WUHU216HW,2013-03-14 09:07:00,
2013-03-14 04:12:00,12.7,6.2,30.04,West,270,0.0,0.0,75,0.00,,,0.00,WUHU216HW,2013-03-14 09:12:00,
2013-03-14 04:17:00,12.5,6.0,30.03,West,270,0.0,0.0,75,0.00,,,0.00,WUHU216HW,2013-03-14 09:17:00,
2013-03-14 04:22:00,12.7,6.5,30.03,West,270,0.0,0.0,76,0.00,,,0.00,WUHU216HW,2013-03-14 09:22:00,
2013-03-14 04:27:00,12.7,6.5,30.03,West,270,0.0,0.0,76,0.00,,,0.00,WUHU216HW,2013-03-14 09:27:00,
2013-03-14 04:32:00,12.7,6.5,30.03,West,270,0.0,0.0,76,0.00,,,0.00,WUHU216HW,2013-03-14 09:32:00,
2013-03-14 04:38:00,12.7,6.5,30.03,West,270,0.0,0.0,76,0.00,,,0.00,WUHU216HW,2013-03-14 09:38:00,
2013-03-14 04:43:00,12.9,7.0,30.03,West,270,0.0,0.0,77,0.00,,,0.00,WUHU216HW,2013-03-14 09:43:00,
2013-03-14 04:48:00,13.1,7.1,30.04,West,270,0.0,0.0,77,0.00,,,0.00,WUHU216HW,2013-03-14 09:48:00,
2013-03-14 04:53:00,13.2,7.3,30.04,West,270,0.0,0.0,77,0.00,,,0.00,WUHU216HW,2013-03-14 09:53:00,
2013-03-14 04:58:00,13.2,7.3,30.04,West,270,0.0,0.0,77,0.00,,,0.00,WUHU216HW,2013-03-14 09:58:00,
2013-03-14 05:03:00,13.1,7.1,30.04,West,270,0.0,0.0,77,0.00,,,0.00,WUHU216HW,2013-03-14 10:03:00,
2013-03-14 05:08:00,12.7,6.8,30.03,West,270,0.0,0.0,77,0.00,,,0.00,WUHU216HW,2013-03-14 10:08:00,
2013-03-14 05:13:00,12.5,6.6,30.03,West,270,0.0,0.0,77,0.00,,,0.00,WUHU216HW,2013-03-14 10:13:00,
2013-03-14 05:18:00,12.3,6.4,30.03,West,270,0.0,0.0,77,0.00,,,0.00,WUHU216HW,2013-03-14 10:18:00,
2013-03-14 05:23:00,12.3,6.4,30.04,West,270,0.0,0.0,78,0.00,,,0.00,WUHU216HW,2013-03-14 10:23:00,
2013-03-14 05:28:00,12.3,6.7,30.04,West,270,0.0,0.0,78,0.00,,,0.00,WUHU216HW,2013-03-14 10:28:00,
2013-03-14 05:33:00,12.3,6.7,30.04,West,270,0.0,0.0,78,0.00,,,0.00,WUHU216HW,2013-03-14 10:33:00,
2013-03-14 05:38:00,12.3,6.7,30.04,West,270,0.0,0.0,78,0.00,,,0.00,WUHU216HW,2013-03-14 10:38:00,
2013-03-14 05:44:00,12.3,6.7,30.04,West,270,0.0,0.0,78,0.00,,,0.00,WUHU216HW,2013-03-14 10:44:00,
2013-03-14 05:49:00,12.5,6.9,30.04,West,270,0.0,0.0,78,0.00,,,0.00,WUHU216HW,2013-03-14 10:49:00,
2013-03-14 05:54:00,12.7,7.1,30.04,West,270,0.0,0.0,78,0.00,,,0.00,WUHU216HW,2013-03-14 10:54:00,
2013-03-14 05:59:00,12.7,7.1,30.04,West,270,0.0,0.0,78,0.00,,,0.00,WUHU216HW,2013-03-14 10:59:00,
2013-03-14 06:04:00,12.7,7.4,30.04,West,270,0.0,0.0,79,0.00,,,0.00,WUHU216HW,2013-03-14 11:04:00,
2013-03-14 06:09:00,12.7,7.4,30.04,West,270,0.0,0.0,79,0.00,,,0.00,WUHU216HW,2013-03-14 11:09:00,
2013-03-14 06:14:00,12.5,7.2,30.04,West,270,0.0,0.0,79,0.00,,,0.00,WUHU216HW,2013-03-14 11:14:00,
2013-03-14 06:19:00,12.5,7.2,30.04,West,270,0.0,0.0,79,0.00,,,0.00,WUHU216HW,2013-03-14 11:19:00,
2013-03-14 06:24:00,12.3,7.0,30.05,West,270,0.0,0.0,79,0.00,,,0.00,WUHU216HW,2013-03-14 11:24:00,
2013-03-14 06:29:00,12.0,6.6,30.04,West,270,0.0,0.0,79,0.00,,,0.00,WUHU216HW,2013-03-14 11:29:00,
2013-03-14 06:34:00,12.0,6.6,30.04,West,270,0.0,0.0,79,0.00,,,0.00,WUHU216HW,2013-03-14 11:34:00,
2013-03-14 06:39:00,12.0,6.6,30.04,West,270,0.0,0.0,79,0.00,,,0.00,WUHU216HW,2013-03-14 11:39:00,
2013-03-14 06:44:00,12.0,6.5,30.04,West,270,0.0,0.0,79,0.00,,,0.00,WUHU216HW,2013-03-14 11:44:00,
2013-03-14 06:49:00,12.0,6.9,30.04,West,270,0.0,0.0,80,0.00,,,0.00,WUHU216HW,2013-03-14 11:49:00,
2013-03-14 06:54:00,12.0,6.9,30.05,West,270,0.0,0.0,80,0.00,,,0.00,WUHU216HW,2013-03-14 11:54:00,
2013-03-14 06:59:00,12.0,6.9,30.04,West,270,0.0,0.0,80,0.00,,,0.00,WUHU216HW,2013-03-14 11:59:00,
2013-03-14 07:04:00,11.8,6.8,30.04,West,270,0.0,0.0,80,0.00,,,0.00,WUHU216HW,2013-03-14 12:04:00,
2013-03-14 07:09:00,11.8,6.8,30.04,West,270,0.0,0.0,80,0.00,,,0.00,WUHU216HW,2013-03-14 12:09:00,
2013-03-14 07:14:00,11.8,6.8,30.04,West,270,0.0,0.0,80,0.00,,,0.00,WUHU216HW,2013-03-14 12:14:00,
2013-03-14 07:19:00,11.8,6.8,30.04,West,270,0.0,0.0,80,0.00,,,0.00,WUHU216HW,2013-03-14 12:19:00,
2013-03-14 07:24:00,12.0,6.9,30.04,West,270,0.0,0.0,80,0.00,,,0.00,WUHU216HW,2013-03-14 12:24:00,
2013-03-14 07:29:00,12.3,7.6,30.04,West,270,0.0,0.0,81,0.00,,,0.00,WUHU216HW,2013-03-14 12:29:00,
2013-03-14 07:34:00,12.5,7.7,30.04,West,270,0.0,0.0,81,0.00,,,0.00,WUHU216HW,2013-03-14 12:34:00,
2013-03-14 07:40:00,12.7,7.9,30.04,West,270,0.0,0.0,81,0.00,,,0.00,WUHU216HW,2013-03-14 12:40:00,
2013-03-14 07:45:00,13.1,8.5,30.04,West,270,0.0,0.0,81,0.00,,,0.00,WUHU216HW,2013-03-14 12:45:00,
2013-03-14 07:50:00,13.8,9.3,30.04,West,270,0.0,0.0,82,0.00,,,0.00,WUHU216HW,2013-03-14 12:50:00,
2013-03-14 07:55:00,14.5,10.0,30.04,West,270,0.0,0.0,82,0.00,,,0.00,WUHU216HW,2013-03-14 12:55:00,
2013-03-14 08:00:00,15.2,10.7,30.04,WSW,248,0.0,0.0,82,0.00,,,0.00,WUHU216HW,2013-03-14 13:00:00,
2013-03-14 08:05:00,16.1,11.8,30.03,WSW,248,0.0,0.0,83,0.00,,,0.00,WUHU216HW,2013-03-14 13:05:00,
2013-03-14 08:10:00,17.2,12.8,30.03,WSW,248,0.0,0.0,83,0.00,,,0.00,WUHU216HW,2013-03-14 13:10:00,
2013-03-14 08:15:00,17.7,13.3,30.03,WSW,248,0.0,0.0,83,0.00,,,0.00,WUHU216HW,2013-03-14 13:15:00,
2013-03-14 08:20:00,18.3,13.9,30.04,WSW,248,0.0,0.0,83,0.00,,,0.00,WUHU216HW,2013-03-14 13:20:00,
2013-03-14 08:25:00,19.2,14.8,30.04,WSW,248,0.0,0.0,83,0.00,,,0.00,WUHU216HW,2013-03-14 13:25:00,
2013-03-14 08:30:00,19.9,15.2,30.04,SW,225,0.0,0.0,82,0.00,,,0.00,WUHU216HW,2013-03-14 13:30:00,
2013-03-14 08:35:00,20.3,15.6,30.04,SW,225,0.0,0.0,82,0.00,,,0.00,WUHU216HW,2013-03-14 13:35:00,
2013-03-14 08:40:00,20.8,16.1,30.03,WSW,248,0.0,0.0,82,0.00,,,0.00,WUHU216HW,2013-03-14 13:40:00,
2013-03-14 08:45:00,21.7,17.0,30.04,SW,225,0.0,0.0,82,0.00,,,0.00,WUHU216HW,2013-03-14 13:45:00,
2013-03-14 08:50:00,22.8,17.8,30.03,SW,225,0.0,0.0,81,0.00,,,0.00,WUHU216HW,2013-03-14 13:50:00,
2013-03-14 08:56:00,23.9,18.6,30.03,SSW,203,0.0,0.0,80,0.00,,,0.00,WUHU216HW,2013-03-14 13:56:00,
2013-03-14 09:01:00,24.6,19.0,30.03,SW,225,0.0,0.0,79,0.00,,,0.00,WUHU216HW,2013-03-14 14:01:00,
2013-03-14 09:06:00,25.1,19.2,30.04,SW,225,0.0,0.0,78,0.00,,,0.00,WUHU216HW,2013-03-14 14:06:00,
2013-03-14 09:11:00,25.5,19.2,30.04,WSW,248,0.0,0.0,77,0.00,,,0.00,WUHU216HW,2013-03-14 14:11:00,
2013-03-14 09:16:00,26.2,19.3,30.03,SW,225,0.0,0.0,75,0.00,,,0.00,WUHU216HW,2013-03-14 14:16:00,
2013-03-14 09:21:00,26.4,19.1,30.03,SW,225,0.0,0.0,74,0.00,,,0.00,WUHU216HW,2013-03-14 14:21:00,
2013-03-14 09:26:00,26.7,19.0,30.03,SW,225,0.0,0.0,73,0.00,,,0.00,WUHU216HW,2013-03-14 14:26:00,
2013-03-14 09:31:00,26.9,19.1,30.03,SW,225,0.0,0.0,72,0.00,,,0.00,WUHU216HW,2013-03-14 14:31:00,
2013-03-14 09:36:00,27.3,19.1,30.03,SW,225,0.0,0.0,71,0.00,,,0.00,WUHU216HW,2013-03-14 14:36:00,
2013-03-14 09:41:00,27.6,19.5,30.03,WSW,248,0.0,0.0,71,0.00,,,0.00,WUHU216HW,2013-03-14 14:41:00,
2013-03-14 09:46:00,28.2,19.7,30.04,SSW,203,0.0,0.0,70,0.00,,,0.00,WUHU216HW,2013-03-14 14:46:00,
2013-03-14 09:52:00,29.1,19.8,30.03,SSW,203,0.0,0.0,68,0.00,,,0.00,WUHU216HW,2013-03-14 14:52:00,
2013-03-14 09:57:00,29.6,19.9,30.03,SSW,203,0.0,0.0,67,0.00,,,0.00,WUHU216HW,2013-03-14 14:57:00,
2013-03-14 10:02:00,30.0,19.9,30.04,WSW,248,0.0,0.0,66,0.00,,,0.00,WUHU216HW,2013-03-14 15:02:00,
2013-03-14 10:07:00,30.3,19.5,30.04,WSW,248,0.0,0.0,64,0.00,,,0.00,WUHU216HW,2013-03-14 15:07:00,
2013-03-14 10:12:00,31.6,20.8,30.03,WSW,248,0.0,0.0,64,0.00,,,0.00,WUHU216HW,2013-03-14 15:12:00,
2013-03-14 10:17:00,32.9,21.4,30.03,SW,225,0.0,0.0,63,0.00,,,0.00,WUHU216HW,2013-03-14 15:17:00,
2013-03-14 10:22:00,34.3,22.2,30.03,ESE,113,0.0,0.0,61,0.00,,,0.00,WUHU216HW,2013-03-14 15:22:00,
2013-03-14 10:27:00,35.4,23.0,30.03,ESE,113,0.0,0.0,60,0.00,,,0.00,WUHU216HW,2013-03-14 15:27:00,
2013-03-14 10:32:00,36.5,23.1,30.03,ESE,113,0.0,0.0,58,0.00,,,0.00,WUHU216HW,2013-03-14 15:32:00,
2013-03-14 10:37:00,36.6,22.8,30.03,ESE,113,0.0,0.0,57,0.00,,,0.00,WUHU216HW,2013-03-14 15:37:00,
2013-03-14 10:42:00,37.0,22.7,30.03,SSW,203,0.0,0.0,56,0.00,,,0.00,WUHU216HW,2013-03-14 15:42:00,
2013-03-14 10:47:00,37.0,22.3,30.03,SW,225,0.0,0.0,55,0.00,,,0.00,WUHU216HW,2013-03-14 15:47:00,
2013-03-14 10:53:00,37.2,22.4,30.03,SW,225,0.0,0.0,55,0.00,,,0.00,WUHU216HW,2013-03-14 15:53:00,
2013-03-14 10:58:00,37.2,22.0,30.03,WSW,248,0.0,0.0,54,0.00,,,0.00,WUHU216HW,2013-03-14 15:58:00,
2013-03-14 11:03:00,36.6,21.5,30.03,SSW,203,4.4,4.4,54,0.00,,,0.00,WUHU216HW,2013-03-14 16:03:00,
2013-03-14 11:08:00,36.6,21.5,30.03,SW,225,0.0,4.4,54,0.00,,,0.00,WUHU216HW,2013-03-14 16:08:00,
2013-03-14 11:13:00,37.5,21.9,30.02,SSW,203,0.0,0.0,53,0.00,,,0.00,WUHU216HW,2013-03-14 16:13:00,
2013-03-14 11:18:00,38.3,22.5,30.02,WSW,248,0.0,0.0,53,0.00,,,0.00,WUHU216HW,2013-03-14 16:18:00,
2013-03-14 11:23:00,39.3,22.8,30.02,SSW,203,0.0,0.0,52,0.00,,,0.00,WUHU216HW,2013-03-14 16:23:00,
2013-03-14 11:28:00,39.7,23.0,30.02,SSW,203,0.0,1.3,51,0.00,,,0.00,WUHU216HW,2013-03-14 16:28:00,
2013-03-14 11:33:00,39.9,23.1,30.02,SSW,203,1.3,1.3,51,0.00,,,0.00,WUHU216HW,2013-03-14 16:33:00,
2013-03-14 11:38:00,40.2,23.0,30.01,SW,225,0.0,1.3,50,0.00,,,0.00,WUHU216HW,2013-03-14 16:38:00,
2013-03-14 11:43:00,41.0,23.1,30.01,SSW,203,0.0,0.0,49,0.00,,,0.00,WUHU216HW,2013-03-14 16:43:00,
2013-03-14 11:48:00,42.0,24.0,30.01,WSW,248,0.0,0.0,49,0.00,,,0.00,WUHU216HW,2013-03-14 16:48:00,
2013-03-14 11:53:00,42.9,24.0,30.01,SSW,203,3.8,4.4,47,0.00,,,0.00,WUHU216HW,2013-03-14 16:53:00,
2013-03-14 11:58:00,42.9,23.5,30.01,SSW,203,6.0,6.0,46,0.00,,,0.00,WUHU216HW,2013-03-14 16:58:00,
2013-03-14 12:03:00,42.4,23.0,30.01,SW,225,0.0,6.0,46,0.00,,,0.00,WUHU216HW,2013-03-14 17:03:00,
2013-03-14 12:08:00,41.5,21.6,30.01,SW,225,0.0,6.4,45,0.00,,,0.00,WUHU216HW,2013-03-14 17:08:00,
2013-03-14 12:13:00,40.6,21.3,30.01,SW,225,4.2,6.4,46,0.00,,,0.00,WUHU216HW,2013-03-14 17:13:00,
2013-03-14 12:18:00,40.8,21.4,30.01,South,180,5.1,5.1,46,0.00,,,0.00,WUHU216HW,2013-03-14 17:18:00,
2013-03-14 12:23:00,41.1,22.3,30.00,SSW,203,6.0,6.0,47,0.00,,,0.00,WUHU216HW,2013-03-14 17:23:00,
2013-03-14 12:29:00,41.5,22.1,29.99,SW,225,5.3,6.0,46,0.00,,,0.00,WUHU216HW,2013-03-14 17:29:00,
2013-03-14 12:34:00,41.1,21.7,29.99,SW,225,4.9,5.3,46,0.00,,,0.00,WUHU216HW,2013-03-14 17:34:00,
2013-03-14 12:39:00,41.1,21.7,29.99,SSW,213,3.5,4.9,46,0.00,,,0.00,WUHU216HW,2013-03-14 17:39:00,
2013-03-14 12:44:00,41.3,22.4,29.99,SSW,203,4.2,6.7,47,0.00,,,0.00,WUHU216HW,2013-03-14 17:44:00,
2013-03-14 12:49:00,41.5,22.6,29.98,SW,225,3.3,6.7,47,0.00,,,0.00,WUHU216HW,2013-03-14 17:49:00,
2013-03-14 12:54:00,40.8,21.4,29.99,SSW,203,5.1,5.8,46,0.00,,,0.00,WUHU216HW,2013-03-14 17:54:00,
2013-03-14 12:59:00,40.8,21.4,29.99,SSW,203,4.9,6.0,46,0.00,,,0.00,WUHU216HW,2013-03-14 17:59:00,
2013-03-14 13:04:00,40.8,21.4,29.99,SW,225,0.0,8.2,46,0.00,,,0.00,WUHU216HW,2013-03-14 18:04:00,
2013-03-14 13:09:00,41.5,22.1,29.99,SSW,203,5.8,8.2,46,0.00,,,0.00,WUHU216HW,2013-03-14 18:09:00,
2013-03-14 13:14:00,42.4,23.0,29.99,SE,135,0.0,6.2,46,0.00,,,0.00,WUHU216HW,2013-03-14 18:14:00,
2013-03-14 13:19:00,42.9,22.9,29.98,SSE,158,3.3,6.0,45,0.00,,,0.00,WUHU216HW,2013-03-14 18:19:00,
2013-03-14 13:24:00,43.1,23.1,29.98,SSW,203,5.3,5.5,45,0.00,,,0.00,WUHU216HW,2013-03-14 18:24:00,
2013-03-14 13:29:00,43.3,22.7,29.98,SSW,203,5.1,6.7,44,0.00,,,0.00,WUHU216HW,2013-03-14 18:29:00,
2013-03-14 13:34:00,43.5,22.9,29.98,SSE,158,0.0,6.4,44,0.00,,,0.00,WUHU216HW,2013-03-14 18:34:00,
2013-03-14 13:39:00,44.0,23.4,29.98,SW,225,5.1,6.4,44,0.00,,,0.00,WUHU216HW,2013-03-14 18:39:00,
2013-03-14 13:44:00,44.6,23.1,29.97,SSE,158,6.4,6.4,43,0.00,,,0.00,WUHU216HW,2013-03-14 18:44:00,
2013-03-14 13:49:00,44.9,23.6,29.97,SSE,158,4.4,6.4,43,0.00,,,0.00,WUHU216HW,2013-03-14 18:49:00,
2013-03-14 13:54:00,44.9,23.1,29.97,South,180,5.9,6.9,42,0.00,,,0.00,WUHU216HW,2013-03-14 18:54:00,
2013-03-14 13:59:00,44.7,22.9,29.96,South,180,3.8,6.9,42,0.00,,,0.00,WUHU216HW,2013-03-14 18:59:00,
2013-03-14 14:04:00,44.4,22.6,29.96,SW,225,0.0,4.0,42,0.00,,,0.00,WUHU216HW,2013-03-14 19:04:00,
2013-03-14 14:09:00,44.4,22.6,29.95,South,180,3.3,3.3,42,0.00,,,0.00,WUHU216HW,2013-03-14 19:09:00,
2013-03-14 14:14:00,43.3,21.6,29.95,South,180,4.7,6.0,42,0.00,,,0.00,WUHU216HW,2013-03-14 19:14:00,
2013-03-14 14:19:00,43.1,22.0,29.95,SSW,203,3.3,6.0,43,0.00,,,0.00,WUHU216HW,2013-03-14 19:19:00,
2013-03-14 14:24:00,43.5,22.5,29.95,SSW,203,4.2,5.5,43,0.00,,,0.00,WUHU216HW,2013-03-14 19:24:00,
2013-03-14 14:29:00,44.0,22.8,29.95,SSW,203,4.0,6.0,43,0.00,,,0.00,WUHU216HW,2013-03-14 19:29:00,
2013-03-14 14:34:00,44.4,23.1,29.94,SSW,198,4.3,6.4,43,0.00,,,0.00,WUHU216HW,2013-03-14 19:34:00,
2013-03-14 14:40:00,44.4,23.1,29.94,South,180,4.0,7.3,43,0.00,,,0.00,WUHU216HW,2013-03-14 19:40:00,
2013-03-14 14:45:00,44.4,23.1,29.93,SSW,203,5.1,7.3,43,0.00,,,0.00,WUHU216HW,2013-03-14 19:45:00,
2013-03-14 14:50:00,44.4,23.1,29.93,SSW,203,8.2,8.2,43,0.00,,,0.00,WUHU216HW,2013-03-14 19:50:00,
2013-03-14 14:55:00,43.8,22.7,29.93,SE,145,4.6,8.2,43,0.00,,,0.00,WUHU216HW,2013-03-14 19:55:00,
2013-03-14 15:00:00,43.5,23.4,29.94,South,180,5.2,6.7,45,0.00,,,0.00,WUHU216HW,2013-03-14 20:00:00,
2013-03-14 15:05:00,43.8,23.7,29.94,SSE,158,0.6,6.7,45,0.00,,,0.00,WUHU216HW,2013-03-14 20:05:00,
2013-03-14 15:10:00,44.2,24.1,29.94,South,180,6.3,6.7,45,0.00,,,0.00,WUHU216HW,2013-03-14 20:10:00,
2013-03-14 15:15:00,44.2,24.1,29.94,SSE,158,0.0,6.7,45,0.00,,,0.00,WUHU216HW,2013-03-14 20:15:00,
2013-03-14 15:20:00,44.4,24.8,29.94,SSE,158,0.0,5.3,46,0.00,,,0.00,WUHU216HW,2013-03-14 20:20:00,
2013-03-14 15:25:00,44.4,24.8,29.95,SSW,192,4.8,5.1,46,0.00,,,0.00,WUHU216HW,2013-03-14 20:25:00,
2013-03-14 15:30:00,44.2,24.6,29.94,SSW,203,5.5,5.5,46,0.00,,,0.00,WUHU216HW,2013-03-14 20:30:00,
2013-03-14 15:35:00,44.2,24.6,29.94,SW,225,0.0,5.5,46,0.00,,,0.00,WUHU216HW,2013-03-14 20:35:00,
2013-03-14 15:40:00,44.0,25.0,29.95,SSW,203,0.4,4.9,47,0.00,,,0.00,WUHU216HW,2013-03-14 20:40:00,
2013-03-14 15:45:00,43.7,24.7,29.95,SW,225,0.0,4.9,47,0.00,,,0.00,WUHU216HW,2013-03-14 20:45:00,
2013-03-14 15:51:00,43.3,24.9,29.96,SSE,158,0.0,0.0,48,0.00,,,0.00,WUHU216HW,2013-03-14 20:51:00,
2013-03-14 15:56:00,43.1,24.7,29.95,South,180,2.8,3.5,48,0.00,,,0.00,WUHU216HW,2013-03-14 20:56:00,
2013-03-14 16:01:00,42.9,25.1,29.96,SSW,203,0.0,3.5,49,0.00,,,0.00,WUHU216HW,2013-03-14 21:01:00,
2013-03-14 16:06:00,42.9,25.6,29.95,SSW,203,1.7,1.7,50,0.00,,,0.00,WUHU216HW,2013-03-14 21:06:00,
2013-03-14 16:11:00,43.5,26.1,29.96,SSW,203,0.0,2.2,50,0.00,,,0.00,WUHU216HW,2013-03-14 21:11:00,
2013-03-14 16:16:00,43.5,26.1,29.96,WSW,248,0.0,2.2,50,0.00,,,0.00,WUHU216HW,2013-03-14 21:16:00,
2013-03-14 16:21:00,42.9,25.6,29.96,SSW,203,0.0,0.0,50,0.00,,,0.00,WUHU216HW,2013-03-14 21:21:00,
2013-03-14 16:27:00,42.4,25.1,29.96,SSW,203,0.0,2.6,50,0.00,,,0.00,WUHU216HW,2013-03-14 21:27:00,
2013-03-14 16:32:00,41.9,25.0,29.96,SW,225,0.0,2.6,51,0.00,,,0.00,WUHU216HW,2013-03-14 21:32:00,
2013-03-14 16:37:00,41.3,24.9,29.95,SW,225,0.0,0.0,52,0.00,,,0.00,WUHU216HW,2013-03-14 21:37:00,
2013-03-14 16:42:00,41.0,24.6,29.96,SSW,203,0.0,0.0,52,0.00,,,0.00,WUHU216HW,2013-03-14 21:42:00,
2013-03-14 16:47:00,40.8,24.8,29.95,SW,225,0.0,3.5,53,0.00,,,0.00,WUHU216HW,2013-03-14 21:47:00,
2013-03-14 16:52:00,40.6,24.7,29.95,SSW,203,0.0,3.5,53,0.00,,,0.00,WUHU216HW,2013-03-14 21:52:00,
2013-03-14 16:57:00,40.6,25.1,29.94,SSE,158,0.0,3.1,54,0.00,,,0.00,WUHU216HW,2013-03-14 21:57:00,
2013-03-14 17:02:00,40.4,24.9,29.93,SSW,203,4.3,4.6,54,0.00,,,0.00,WUHU216HW,2013-03-14 22:02:00,
2013-03-14 17:07:00,40.2,25.2,29.93,SSW,203,4.2,4.6,55,0.00,,,0.00,WUHU216HW,2013-03-14 22:07:00,
2013-03-14 17:12:00,39.9,24.9,29.91,SSW,203,3.3,4.6,55,0.00,,,0.00,WUHU216HW,2013-03-14 22:12:00,
2013-03-14 17:17:00,39.7,24.7,29.91,South,180,3.3,6.4,55,0.00,,,0.00,WUHU216HW,2013-03-14 22:17:00,
2013-03-14 17:22:00,38.8,23.9,29.90,South,180,5.8,6.4,55,0.00,,,0.00,WUHU216HW,2013-03-14 22:22:00,
2013-03-14 17:27:00,37.9,23.5,29.90,South,190,3.7,5.8,56,0.00,,,0.00,WUHU216HW,2013-03-14 22:27:00,
2013-03-14 17:32:00,37.2,23.3,29.90,SSW,203,0.8,5.8,57,0.00,,,0.00,WUHU216HW,2013-03-14 22:32:00,
2013-03-14 17:37:00,36.6,23.2,29.90,SSW,203,0.0,4.9,58,0.00,,,0.00,WUHU216HW,2013-03-14 22:37:00,
2013-03-14 17:42:00,36.1,23.2,29.90,South,180,4.2,4.2,59,0.00,,,0.00,WUHU216HW,2013-03-14 22:42:00,
2013-03-14 17:48:00,35.4,23.0,29.89,SSE,158,3.8,4.6,60,0.00,,,0.00,WUHU216HW,2013-03-14 22:48:00,
2013-03-14 17:53:00,34.8,22.8,29.89,SSE,158,3.3,5.3,61,0.00,,,0.00,WUHU216HW,2013-03-14 22:53:00,
2013-03-14 17:58:00,34.3,22.6,29.90,SSW,203,4.6,5.3,62,0.00,,,0.00,WUHU216HW,2013-03-14 22:58:00,
2013-03-14 18:03:00,34.3,23.0,29.90,SSW,203,4.9,5.1,63,0.00,,,0.00,WUHU216HW,2013-03-14 23:03:00,
2013-03-14 18:08:00,33.8,22.4,29.91,SSW,203,1.3,5.1,63,0.00,,,0.00,WUHU216HW,2013-03-14 23:08:00,
2013-03-14 18:13:00,33.6,22.6,29.90,South,180,4.4,4.4,64,0.00,,,0.00,WUHU216HW,2013-03-14 23:13:00,
2013-03-14 18:18:00,33.2,22.3,29.90,SSW,203,3.3,4.4,64,0.00,,,0.00,WUHU216HW,2013-03-14 23:18:00,
2013-03-14 18:23:00,32.9,22.3,29.90,SSW,203,3.1,4.9,65,0.00,,,0.00,WUHU216HW,2013-03-14 23:23:00,
2013-03-14 18:28:00,32.5,22.0,29.90,SSW,212,4.1,4.6,65,0.00,,,0.00,WUHU216HW,2013-03-14 23:28:00,
2013-03-14 18:33:00,32.1,21.7,29.90,SW,225,0.0,4.6,65,0.00,,,0.00,WUHU216HW,2013-03-14 23:33:00,
2013-03-14 18:38:00,31.8,21.7,29.90,SSW,203,5.1,5.1,66,0.00,,,0.00,WUHU216HW,2013-03-14 23:38:00,
2013-03-14 18:43:00,31.2,21.2,29.90,SW,225,0.0,5.1,66,0.00,,,0.00,WUHU216HW,2013-03-14 23:43:00,
2013-03-14 18:48:00,30.9,21.2,29.91,WSW,248,3.3,3.5,67,0.00,,,0.00,WUHU216HW,2013-03-14 23:48:00,
2013-03-14 18:54:00,30.7,21.0,29.91,SW,225,0.0,4.0,67,0.00,,,0.00,WUHU216HW,2013-03-14 23:54:00,
2013-03-14 18:59:00,30.3,21.0,29.90,SSW,203,7.6,7.6,68,0.00,,,0.00,WUHU216HW,2013-03-14 23:59:00,
2013-03-14 19:04:00,30.0,21.2,29.91,SSW,203,3.8,7.6,69,0.00,,,0.00,WUHU216HW,2013-03-15 00:04:00,
2013-03-14 19:09:00,30.0,21.0,29.90,SSW,203,1.3,5.1,69,0.00,,,0.00,WUHU216HW,2013-03-15 00:09:00,
2013-03-14 19:14:00,29.6,21.2,29.89,SSW,203,4.9,4.9,70,0.00,,,0.00,WUHU216HW,2013-03-15 00:14:00,
2013-03-14 19:19:00,29.4,20.9,29.89,SW,218,2.2,5.3,70,0.00,,,0.00,WUHU216HW,2013-03-15 00:19:00,
2013-03-14 19:24:00,29.3,21.0,29.89,SSW,203,2.4,5.3,71,0.00,,,0.00,WUHU216HW,2013-03-15 00:24:00,
2013-03-14 19:29:00,29.1,20.8,29.89,SW,225,0.0,5.1,71,0.00,,,0.00,WUHU216HW,2013-03-15 00:29:00,
2013-03-14 19:34:00,29.1,21.0,29.89,SSW,203,0.0,5.1,72,0.00,,,0.00,WUHU216HW,2013-03-15 00:34:00,
2013-03-14 19:39:00,28.7,21.0,29.89,SSW,203,4.2,4.2,72,0.00,,,0.00,WUHU216HW,2013-03-15 00:39:00,
2013-03-14 19:44:00,28.5,20.7,29.89,SSW,203,3.1,4.2,72,0.00,,,0.00,WUHU216HW,2013-03-15 00:44:00,
2013-03-14 19:49:00,28.5,21.0,29.88,SW,225,0.0,3.3,73,0.00,,,0.00,WUHU216HW,2013-03-15 00:49:00,
2013-03-14 19:54:00,28.2,20.6,29.87,SW,225,0.0,2.9,73,0.00,,,0.00,WUHU216HW,2013-03-15 00:54:00,
2013-03-14 19:59:00,28.0,20.4,29.88,SW,225,0.0,4.2,73,0.00,,,0.00,WUHU216HW,2013-03-15 00:59:00,
2013-03-14 20:04:00,28.0,20.4,29.88,SSW,203,3.1,4.2,73,0.00,,,0.00,WUHU216HW,2013-03-15 01:04:00,
2013-03-14 20:09:00,27.6,20.4,29.87,SW,225,0.0,4.0,74,0.00,,,0.00,WUHU216HW,2013-03-15 01:09:00,
2013-03-14 20:14:00,27.6,20.4,29.87,SSW,203,4.0,4.0,74,0.00,,,0.00,WUHU216HW,2013-03-15 01:14:00,
2013-03-14 20:19:00,27.5,20.2,29.86,SSW,203,0.0,4.0,74,0.00,,,0.00,WUHU216HW,2013-03-15 01:19:00,
2013-03-14 20:24:00,27.3,20.3,29.86,SW,225,0.0,1.5,75,0.00,,,0.00,WUHU216HW,2013-03-15 01:24:00,
2013-03-14 20:29:00,27.3,20.3,29.87,SW,225,0.0,0.0,75,0.00,,,0.00,WUHU216HW,2013-03-15 01:29:00,
2013-03-14 20:34:00,27.1,20.2,29.86,WSW,248,0.0,0.0,75,0.00,,,0.00,WUHU216HW,2013-03-15 01:34:00,
2013-03-14 20:40:00,27.1,20.5,29.86,WSW,248,0.0,3.5,76,0.00,,,0.00,WUHU216HW,2013-03-15 01:40:00,
2013-03-14 20:45:00,27.1,20.5,29.86,SSW,203,0.0,3.5,76,0.00,,,0.00,WUHU216HW,2013-03-15 01:45:00,
2013-03-14 20:50:00,27.1,20.5,29.86,SW,225,0.0,0.0,76,0.00,,,0.00,WUHU216HW,2013-03-15 01:50:00,
2013-03-14 20:55:00,27.1,20.5,29.85,SW,225,0.0,3.3,76,0.00,,,0.00,WUHU216HW,2013-03-15 01:55:00,
2013-03-14 21:00:00,26.9,20.6,29.86,WSW,248,0.0,3.3,77,0.00,,,0.00,WUHU216HW,2013-03-15 02:00:00,
2013-03-14 21:05:00,26.9,20.6,29.85,SW,225,0.0,0.0,77,0.00,,,0.00,WUHU216HW,2013-03-15 02:05:00,
2013-03-14 21:10:00,26.7,20.7,29.85,SSW,203,0.0,0.0,78,0.00,,,0.00,WUHU216HW,2013-03-15 02:10:00,
2013-03-14 21:15:00,26.7,20.7,29.85,SW,225,0.0,0.0,78,0.00,,,0.00,WUHU216HW,2013-03-15 02:15:00,
2013-03-14 21:20:00,26.4,20.4,29.85,WSW,248,0.0,0.0,78,0.00,,,0.00,WUHU216HW,2013-03-15 02:20:00,
2013-03-14 21:25:00,26.4,20.4,29.85,SW,225,0.0,0.0,78,0.00,,,0.00,WUHU216HW,2013-03-15 02:25:00,
2013-03-14 21:30:00,26.2,20.2,29.85,SW,225,0.0,0.0,78,0.00,,,0.00,WUHU216HW,2013-03-15 02:30:00,
2013-03-14 21:35:00,26.2,20.5,29.85,SW,225,0.0,0.0,79,0.00,,,0.00,WUHU216HW,2013-03-15 02:35:00,
2013-03-14 21:40:00,26.2,20.5,29.85,WSW,248,0.0,0.0,79,0.00,,,0.00,WUHU216HW,2013-03-15 02:40:00,
2013-03-14 21:45:00,26.0,20.3,29.85,WSW,248,0.0,0.0,79,0.00,,,0.00,WUHU216HW,2013-03-15 02:45:00,
2013-03-14 21:50:00,26.0,20.2,29.84,WSW,248,0.0,0.0,79,0.00,,,0.00,WUHU216HW,2013-03-15 02:50:00,
2013-03-14 21:55:00,25.8,20.2,29.85,SW,225,0.0,0.0,79,0.00,,,0.00,WUHU216HW,2013-03-15 02:55:00,
2013-03-14 22:00:00,25.8,20.5,29.84,SW,225,0.0,0.0,80,0.00,,,0.00,WUHU216HW,2013-03-15 03:00:00,
2013-03-14 22:05:00,25.8,20.5,29.85,SW,225,0.0,0.0,80,0.00,,,0.00,WUHU216HW,2013-03-15 03:05:00,
2013-03-14 22:10:00,25.7,20.3,29.84,SW,225,0.0,0.0,80,0.00,,,0.00,WUHU216HW,2013-03-15 03:10:00,
2013-03-14 22:16:00,25.7,20.3,29.85,SW,225,0.0,0.0,80,0.00,,,0.00,WUHU216HW,2013-03-15 03:16:00,
2013-03-14 22:21:00,25.7,20.3,29.84,SW,225,0.0,0.0,80,0.00,,,0.00,WUHU216HW,2013-03-15 03:21:00,
2013-03-14 22:26:00,25.7,20.6,29.84,WSW,248,0.0,0.0,81,0.00,,,0.00,WUHU216HW,2013-03-15 03:26:00,
2013-03-14 22:31:00,25.7,20.6,29.84,WSW,248,0.0,0.0,81,0.00,,,0.00,WUHU216HW,2013-03-15 03:31:00,
2013-03-14 22:36:00,25.7,20.6,29.84,SW,225,0.0,0.0,81,0.00,,,0.00,WUHU216HW,2013-03-15 03:36:00,
2013-03-14 22:41:00,26.0,20.9,29.84,WSW,248,0.0,0.0,81,0.00,,,0.00,WUHU216HW,2013-03-15 03:41:00,
2013-03-14 22:46:00,26.2,21.4,29.84,SW,225,2.6,2.6,82,0.00,,,0.00,WUHU216HW,2013-03-15 03:46:00,
2013-03-14 22:51:00,26.2,21.4,29.83,SW,225,0.0,2.6,82,0.00,,,0.00,WUHU216HW,2013-03-15 03:51:00,
2013-03-14 22:56:00,26.4,21.5,29.83,SW,225,0.0,2.6,82,0.00,,,0.00,WUHU216HW,2013-03-15 03:56:00,
2013-03-14 23:00:00,26.4,21.8,29.83,SSW,203,0.8,2.0,83,0.00,,,0.00,WUHU216HW,2013-03-15 04:00:00,
2013-03-14 23:01:00,26.4,21.8,29.83,SSW,203,0.8,2.0,83,0.00,,,0.00,WUHU216HW,2013-03-15 04:01:00,
2013-03-14 23:06:00,26.4,21.8,29.83,WSW,248,0.0,4.0,83,0.00,,,0.00,WUHU216HW,2013-03-15 04:06:00,
2013-03-14 23:11:00,26.4,21.8,29.83,WSW,248,2.0,5.3,83,0.00,,,0.00,WUHU216HW,2013-03-15 04:11:00,
2013-03-14 23:16:00,26.4,21.8,29.82,WSW,248,0.0,5.3,83,0.00,,,0.00,WUHU216HW,2013-03-15 04:16:00,
2013-03-14 23:21:00,26.4,22.1,29.83,WSW,248,0.0,0.0,84,0.00,,,0.00,WUHU216HW,2013-03-15 04:21:00,
2013-03-14 23:26:00,26.4,22.1,29.83,SW,225,0.0,0.0,84,0.00,,,0.00,WUHU216HW,2013-03-15 04:26:00,
2013-03-14 23:31:00,26.2,22.0,29.82,SW,225,0.0,0.0,84,0.00,,,0.00,WUHU216HW,2013-03-15 04:31:00,
2013-03-14 23:36:00,26.2,22.0,29.82,WSW,248,0.0,0.0,84,0.00,,,0.00,WUHU216HW,2013-03-15 04:36:00,
2013-03-14 23:42:00,26.0,21.8,29.82,SW,225,0.0,0.0,84,0.00,,,0.00,WUHU216HW,2013-03-15 04:42:00,
2013-03-14 23:47:00,25.8,21.6,29.81,WSW,248,2.0,2.0,84,0.00,,,0.00,WUHU216HW,2013-03-15 04:47:00,
2013-03-14 23:52:00,25.8,21.6,29.81,SW,225,0.0,2.0,84,0.00,,,0.00,WUHU216HW,2013-03-15 04:52:00,
2013-03-14 23:57:00,25.8,21.6,29.81,WSW,248,0.0,0.0,84,0.00,,,0.00,WUHU216HW,2013-03-15 04:57:00,